Terminal Aerodrome Forecast
Issued by NWS

Home | Current Version | Previous Version | Text Only | Print | Product List | Glossary On
Versions: 1 2 3 4 5 6 7 8 9 10 11 12
000
FTUS46 KSEW 200500
TAFBFI
TAF
KBFI 200538Z 2006/2106 19006KT P6SM SCT035 BKN050
     FM200900 17004KT P6SM SCT018 OVC030
      TEMPO 2011/2015 OVC016
     FM201900 20006KT P6SM BKN040
     FM202200 20006KT P6SM SCT060=

USA.gov is the U.S. government's official web portal to all federal, state and local government web resources and services.